Terminal Aerodrome Forecast
Issued by NWS Tuscon, AZ

Home | Current Version | Previous Version | Text Only | Print | Product List | Glossary On
Versions: 1 2 3 4 5 6 7 8 9 10 11 12 13
000
FTUS45 KTWC 301125
TAFDUG
TAF
KDUG 301125Z 3012/3112 VRB04KT P6SM SCT120 BKN200
     FM301900 17009KT P6SM SCT070 BKN200
     FM302100 27007KT P6SM SCT060 BKN100 OVC180
     FM310300 10005KT P6SM FEW070 BKN120 BKN200
     FM310800 VRB03KT P6SM SCT120 BKN200=

USA.gov is the U.S. government's official web portal to all federal, state and local government web resources and services.